Weather at Nouméa Magenta Airport

Public forecast

Using degrees Celsius for public forecast. Weather courtesy of forecast.io.

Current aviation weather report (METAR) for Nouméa Magenta Airport

Report is more than 6 hours old.

Retrieved 2010/10/01 08:00 UTC (12 years ago):

NWWM 010800Z AUTO 11013KT 9999NDV NCD 25/22 Q1016

Aviation forecast (TAF) for Nouméa Magenta Airport

Forecast is more than 12 hours old.

Retrieved 2022/08/14 18:00 UTC (16 hours ago):

TAF NWWM 141700Z 1418/1518 08012KT 9999 SCT040 BKN050 OVC150 PROB40 TEMPO 1500/1506 SHRA BKN014 SCT020TCU PROB40 TEMPO 1506/1518 07015G25KT 4000 SHRA BKN010 FEW020TCU